createdAt,value
2024-05-09T00:00:36.478Z,151621.75
2024-05-09T00:03:07.000Z,151614.09
2024-05-09T00:05:37.089Z,151609.06
2024-05-09T00:08:06.065Z,151611.59
2024-05-09T00:10:37.241Z,151592.59
2024-05-09T00:13:06.176Z,151540.66
2024-05-09T00:15:33.484Z,151527.97
2024-05-09T00:18:00.958Z,151525.47
2024-05-09T00:20:33.538Z,151506.47
2024-05-09T00:23:08.428Z,151515.34
2024-05-09T00:25:35.897Z,151491.25
2024-05-09T00:28:02.843Z,151444.44
2024-05-09T00:30:34.579Z,151506.47
2024-05-09T00:33:04.747Z,151454.53
2024-05-09T00:35:32.525Z,151439.34
2024-05-09T00:37:59.737Z,151416.56
2024-05-09T00:40:38.974Z,151448.25
2024-05-09T00:43:08.738Z,151465.97
2024-05-09T00:45:35.727Z,151476.06
2024-05-09T00:48:04.528Z,151478.63
2024-05-09T00:50:36.430Z,151478.63
2024-05-09T00:53:06.016Z,151502.69
2024-05-09T00:55:37.105Z,151468.50
2024-05-09T00:58:07.488Z,151443.19
2024-05-09T01:00:39.249Z,151400.13
2024-05-09T01:03:08.470Z,151402.66
2024-05-09T01:05:37.821Z,151407.75
2024-05-09T01:08:05.980Z,151395.06
2024-05-09T01:10:36.396Z,151395.06
2024-05-09T01:13:03.797Z,151390.00
2024-05-09T01:15:30.854Z,151402.66
2024-05-09T01:17:58.763Z,151406.47
2024-05-09T01:20:36.844Z,151406.47
2024-05-09T01:23:12.251Z,151426.72
2024-05-09T01:25:39.775Z,151357.09
2024-05-09T01:28:06.897Z,151355.84
2024-05-09T01:30:36.260Z,151344.38
2024-05-09T01:33:06.136Z,151319.09
2024-05-09T01:35:34.561Z,151341.84
2024-05-09T01:38:01.510Z,151334.28
2024-05-09T01:40:37.813Z,151377.34
2024-05-09T01:43:07.041Z,151365.94
2024-05-09T01:45:34.075Z,151363.41
2024-05-09T01:48:01.639Z,151376.09
2024-05-09T01:50:37.503Z,151381.13
2024-05-09T01:53:07.841Z,151397.59
2024-05-09T01:55:37.500Z,151401.38
2024-05-09T01:58:04.824Z,151414.06
2024-05-09T02:00:38.796Z,151415.31
2024-05-09T02:03:09.299Z,151396.34
2024-05-09T02:05:36.734Z,151382.41
2024-05-09T02:08:04.208Z,151348.16
2024-05-09T02:10:32.985Z,151336.81
2024-05-09T02:13:03.034Z,151286.19
2024-05-09T02:15:29.799Z,151317.84
2024-05-09T02:17:56.829Z,151345.66
2024-05-09T02:20:33.048Z,151364.69
2024-05-09T02:23:03.144Z,151372.28
2024-05-09T02:25:30.090Z,151376.09
2024-05-09T02:27:56.871Z,151382.41
2024-05-09T02:30:36.108Z,151371.03
2024-05-09T02:33:07.811Z,151357.09
2024-05-09T02:35:35.178Z,151346.91
2024-05-09T02:38:02.232Z,151354.56
2024-05-09T02:40:36.410Z,151364.69
2024-05-09T02:43:05.943Z,151391.28
2024-05-09T02:45:35.472Z,151397.59
2024-05-09T02:48:02.756Z,151386.19
2024-05-09T02:50:36.967Z,151359.63
2024-05-09T02:53:06.469Z,151365.94
2024-05-09T02:55:33.944Z,151352.00
2024-05-09T02:58:00.801Z,151301.38
2024-05-09T03:00:36.630Z,151307.69
2024-05-09T03:03:12.394Z,151305.16
2024-05-09T03:05:41.704Z,151330.44
2024-05-09T03:08:08.943Z,151300.13
2024-05-09T03:10:38.341Z,151305.16
2024-05-09T03:13:06.828Z,151317.84
2024-05-09T03:15:33.697Z,151340.59
2024-05-09T03:18:00.737Z,151316.56
2024-05-09T03:20:34.519Z,151332.97
2024-05-09T03:23:03.280Z,151315.31
2024-05-09T03:25:30.291Z,151320.34
2024-05-09T03:27:57.120Z,151320.34
2024-05-09T03:30:31.131Z,151277.31
2024-05-09T03:33:10.083Z,151273.50
2024-05-09T03:35:39.856Z,151267.19
2024-05-09T03:38:06.738Z,151259.59
2024-05-09T03:40:33.669Z,151236.81
2024-05-09T03:43:00.394Z,151209.03
2024-05-09T03:45:27.164Z,151186.22
2024-05-09T03:47:54.200Z,151202.66
2024-05-09T03:50:26.462Z,151192.56
2024-05-09T03:53:03.000Z,151235.56
2024-05-09T03:55:30.007Z,151272.25
2024-05-09T03:57:57.015Z,151253.28
2024-05-09T04:00:31.294Z,151231.78
2024-05-09T04:03:05.934Z,151240.59
2024-05-09T04:05:34.486Z,151249.50
2024-05-09T04:08:04.814Z,151273.50
2024-05-09T04:10:34.186Z,151268.47
2024-05-09T04:13:02.309Z,151292.50
2024-05-09T04:15:29.446Z,151282.41
2024-05-09T04:17:56.646Z,151277.31
2024-05-09T04:20:33.399Z,151293.75
2024-05-09T04:23:11.595Z,151289.97
2024-05-09T04:25:40.707Z,151265.94
2024-05-09T04:28:07.566Z,151263.41
2024-05-09T04:30:38.811Z,151262.16
2024-05-09T04:33:10.769Z,151259.59
2024-05-09T04:35:39.486Z,151296.28
2024-05-09T04:38:09.414Z,151310.22
2024-05-09T04:40:37.490Z,151303.91
2024-05-09T04:43:05.943Z,151326.66
2024-05-09T04:45:33.175Z,151325.41
2024-05-09T04:48:00.806Z,151340.59
2024-05-09T04:50:35.830Z,151372.28
2024-05-09T04:53:10.075Z,151395.06
2024-05-09T04:55:37.977Z,151401.38
2024-05-09T04:58:06.830Z,151376.09
2024-05-09T05:00:37.406Z,151402.66
2024-05-09T05:03:08.313Z,151419.09
2024-05-09T05:05:38.046Z,151425.47
2024-05-09T05:08:10.674Z,151422.88
2024-05-09T05:10:37.582Z,151434.31
2024-05-09T05:13:04.836Z,151436.81
2024-05-09T05:15:31.649Z,151440.63
2024-05-09T05:17:58.696Z,151472.28
2024-05-09T05:20:32.699Z,151459.66
2024-05-09T05:23:00.930Z,151493.78
2024-05-09T05:25:30.561Z,151492.53
2024-05-09T05:27:57.323Z,151510.25
2024-05-09T05:30:29.097Z,151510.25
2024-05-09T05:33:01.374Z,151506.47
2024-05-09T05:35:28.533Z,151522.94
2024-05-09T05:37:55.565Z,151554.59
2024-05-09T05:40:28.714Z,151576.13
2024-05-09T05:43:05.853Z,151597.63
2024-05-09T05:45:32.827Z,151633.09
2024-05-09T05:47:59.961Z,151643.25
2024-05-09T05:50:32.834Z,151657.16
2024-05-09T05:53:03.479Z,151674.91
2024-05-09T05:55:30.441Z,151682.53
2024-05-09T05:57:57.230Z,151688.84
2024-05-09T06:00:34.387Z,151706.56
2024-05-09T06:03:05.536Z,151733.22
2024-05-09T06:05:32.930Z,151761.09
2024-05-09T06:08:00.099Z,151778.84
2024-05-09T06:10:36.981Z,151790.25
2024-05-09T06:13:06.708Z,151815.59
2024-05-09T06:15:36.193Z,151840.97
2024-05-09T06:18:05.763Z,151867.56
2024-05-09T06:20:36.480Z,151879.00
2024-05-09T06:23:05.514Z,151886.56
2024-05-09T06:25:32.628Z,151910.69
2024-05-09T06:27:59.950Z,151917.00
2024-05-09T06:30:36.537Z,151914.47
2024-05-09T06:33:11.186Z,151939.81
2024-05-09T06:35:40.093Z,151938.56
2024-05-09T06:38:07.445Z,151938.56
2024-05-09T06:40:39.169Z,151948.72
2024-05-09T06:43:11.045Z,151963.94
2024-05-09T06:45:39.051Z,151974.06
2024-05-09T06:48:09.831Z,151981.63
2024-05-09T06:50:38.833Z,152000.72
2024-05-09T06:53:06.952Z,152001.97
2024-05-09T06:55:33.938Z,152040.00
2024-05-09T06:58:00.890Z,152059.03
2024-05-09T07:00:35.641Z,152070.41
2024-05-09T07:03:12.752Z,152080.56
2024-05-09T07:05:44.022Z,152094.59
2024-05-09T07:08:11.337Z,152116.13
2024-05-09T07:10:38.556Z,152127.56
2024-05-09T07:13:08.376Z,152150.41
2024-05-09T07:15:35.235Z,152169.41
2024-05-09T07:18:11.074Z,152187.19
2024-05-09T07:20:38.993Z,152193.50
2024-05-09T07:23:08.898Z,152230.28
2024-05-09T07:25:36.011Z,152232.81
2024-05-09T07:28:02.903Z,152229.03
2024-05-09T07:30:33.593Z,152237.94
2024-05-09T07:33:02.537Z,152251.84
2024-05-09T07:35:32.812Z,152235.41
2024-05-09T07:38:00.038Z,152272.19
2024-05-09T07:40:34.808Z,152273.47
2024-05-09T07:43:04.440Z,152297.56
2024-05-09T07:45:48.028Z,152309.00
2024-05-09T07:52:37.274Z,152307.75
2024-05-09T07:53:45.196Z,152331.84
2024-05-09T07:56:15.727Z,152331.84
2024-05-09T07:58:43.825Z,152354.66
2024-05-09T08:01:10.807Z,152371.16
2024-05-09T08:03:38.366Z,152381.34
2024-05-09T08:06:08.140Z,152382.63
2024-05-09T08:08:35.114Z,152390.19
2024-05-09T08:11:02.839Z,152400.38
2024-05-09T08:13:29.778Z,152415.69
2024-05-09T08:15:56.868Z,152397.84
2024-05-09T08:18:23.994Z,152405.44
2024-05-09T08:20:51.050Z,152453.75
2024-05-09T08:23:20.634Z,152452.50
2024-05-09T08:25:47.440Z,152495.63
2024-05-09T08:28:14.547Z,152512.16
2024-05-09T08:30:42.178Z,152515.94
2024-05-09T08:33:09.234Z,152512.16
2024-05-09T08:35:36.092Z,152522.28
2024-05-09T08:38:04.515Z,152522.28
2024-05-09T08:40:36.733Z,152542.63
2024-05-09T08:43:07.880Z,152583.25
2024-05-09T08:45:35.747Z,152571.81
2024-05-09T08:48:03.095Z,152582.00
2024-05-09T08:50:37.573Z,152606.13
2024-05-09T08:53:06.239Z,152590.88
2024-05-09T08:55:37.285Z,152623.91
2024-05-09T08:58:07.172Z,152648.00
2024-05-09T09:00:37.219Z,152670.91
2024-05-09T09:03:09.014Z,152696.34
2024-05-09T09:05:38.356Z,152683.59
2024-05-09T09:08:08.882Z,152700.16
2024-05-09T09:10:39.703Z,152720.47
2024-05-09T09:13:06.802Z,152738.25
2024-05-09T09:15:33.714Z,152753.50
2024-05-09T09:18:01.077Z,152763.69
2024-05-09T09:20:35.775Z,152773.84
2024-05-09T09:23:04.734Z,152824.69
2024-05-09T09:25:32.369Z,152805.63
2024-05-09T09:28:02.038Z,152828.47
2024-05-09T09:30:36.317Z,152824.69
2024-05-09T09:33:05.506Z,152820.88
2024-05-09T09:35:32.788Z,152827.22
2024-05-09T09:38:03.106Z,152888.25
2024-05-09T09:40:36.210Z,152880.59
2024-05-09T09:43:14.187Z,152930.19
2024-05-09T09:45:43.239Z,152959.44
2024-05-09T09:48:10.928Z,152988.69
2024-05-09T09:50:38.869Z,153014.16
2024-05-09T09:53:07.380Z,153071.38
2024-05-09T09:55:35.626Z,153070.09
2024-05-09T09:58:04.158Z,153080.25
2024-05-09T10:00:34.395Z,153138.78
2024-05-09T10:03:02.519Z,153154.00
2024-05-09T10:05:30.273Z,153224.03
2024-05-09T10:07:58.502Z,153276.19
2024-05-09T10:10:32.260Z,153357.66
2024-05-09T10:13:00.893Z,153399.66
2024-05-09T10:15:28.108Z,153344.94
2024-05-09T10:18:04.817Z,153179.47
2024-05-09T10:20:40.207Z,153154.00
2024-05-09T10:23:22.205Z,153245.66
2024-05-09T10:25:55.583Z,153333.47
2024-05-09T10:28:25.705Z,153309.28
2024-05-09T10:31:02.069Z,153276.19
2024-05-09T10:33:39.139Z,153131.13
2024-05-09T10:36:11.627Z,153066.28
2024-05-09T10:38:40.143Z,153057.38
2024-05-09T10:41:08.840Z,153067.56
2024-05-09T10:43:39.133Z,153089.19
2024-05-09T10:46:06.568Z,153118.41
2024-05-09T10:48:33.718Z,153170.56
2024-05-09T10:51:04.153Z,153141.34
2024-05-09T10:53:31.052Z,153109.53
2024-05-09T10:55:58.020Z,153082.78
2024-05-09T10:58:25.437Z,153128.59
2024-05-09T11:00:54.293Z,153168.00
2024-05-09T11:03:23.168Z,153380.56
2024-05-09T11:05:50.776Z,153599.56
2024-05-09T11:08:21.695Z,153795.78
2024-05-09T11:10:50.841Z,153911.78
2024-05-09T11:13:26.808Z,154091.50
2024-05-09T11:15:53.666Z,154155.34
2024-05-09T11:18:24.648Z,154188.47
2024-05-09T11:20:53.168Z,154133.63
2024-05-09T11:23:23.941Z,154007.41
2024-05-09T11:25:51.123Z,153849.31
2024-05-09T11:28:18.098Z,153793.25
2024-05-09T11:30:45.150Z,153718.09
2024-05-09T11:33:12.087Z,153616.13
2024-05-09T11:35:39.105Z,153488.81
2024-05-09T11:38:05.999Z,153504.09
2024-05-09T11:40:35.564Z,153498.97
2024-05-09T11:43:02.507Z,153497.69
2024-05-09T11:45:29.436Z,153476.06
2024-05-09T11:47:56.454Z,153490.09
2024-05-09T11:50:29.809Z,153519.38
2024-05-09T11:52:59.834Z,153547.38
2024-05-09T11:55:28.249Z,153614.88
2024-05-09T11:57:58.290Z,153707.88
2024-05-09T12:00:33.748Z,153859.47
2024-05-09T12:03:04.378Z,154009.94
2024-05-09T12:05:31.532Z,153952.56
2024-05-09T12:07:58.588Z,153883.72
2024-05-09T12:10:32.698Z,153818.72
2024-05-09T12:13:06.693Z,153785.56
2024-05-09T12:15:35.592Z,153723.19
2024-05-09T12:18:04.140Z,153848.03
2024-05-09T12:20:36.969Z,154035.41
2024-05-09T12:23:06.813Z,154104.28
2024-05-09T12:25:33.862Z,154208.91
2024-05-09T12:28:01.218Z,154242.03
2024-05-09T12:30:36.722Z,154106.81
2024-05-09T12:33:07.609Z,153841.63
2024-05-09T12:35:34.765Z,153593.22
2024-05-09T12:38:01.920Z,153707.88
2024-05-09T12:40:35.674Z,153967.84
2024-05-09T12:43:06.143Z,154261.16
2024-05-09T12:45:37.250Z,154405.38
2024-05-09T12:48:05.472Z,154492.16
2024-05-09T12:50:34.233Z,154493.44
2024-05-09T12:53:05.195Z,154550.91
2024-05-09T12:55:40.571Z,154603.25
2024-05-09T12:58:15.608Z,154573.91
2024-05-09T13:00:45.549Z,154601.97
2024-05-09T13:03:13.053Z,154446.25
2024-05-09T13:05:40.440Z,154336.50
2024-05-09T13:08:07.609Z,154367.09
2024-05-09T13:10:34.551Z,154456.41
2024-05-09T13:13:02.195Z,154542.00
2024-05-09T13:15:29.507Z,154673.47
2024-05-09T13:18:01.944Z,154739.94
2024-05-09T13:20:33.603Z,154817.81
2024-05-09T13:23:02.973Z,154774.41
2024-05-09T13:25:29.818Z,154663.28
2024-05-09T13:27:57.295Z,154508.78
2024-05-09T13:30:34.690Z,154688.81
2024-05-09T13:33:09.392Z,154807.63
2024-05-09T13:35:36.695Z,154914.94
2024-05-09T13:38:04.852Z,154706.72
2024-05-09T13:40:35.256Z,154407.97
2024-05-09T13:43:03.666Z,154192.31
2024-05-09T13:45:30.771Z,153944.91
2024-05-09T13:47:58.480Z,153920.72
2024-05-09T13:50:34.279Z,153936.03
2024-05-09T13:53:03.450Z,153874.78
2024-05-09T13:55:30.648Z,153804.69
2024-05-09T13:57:57.625Z,153788.13
2024-05-09T14:00:38.171Z,153761.38
2024-05-09T14:03:12.115Z,153760.13
2024-05-09T14:05:41.851Z,153835.28
2024-05-09T14:08:09.083Z,153979.34
2024-05-09T14:10:36.298Z,154216.53
2024-05-09T14:13:03.387Z,154307.09
2024-05-09T14:15:30.402Z,154461.56
2024-05-09T14:17:57.403Z,154483.25
2024-05-09T14:20:30.881Z,154600.69
2024-05-09T14:23:01.849Z,154635.19
2024-05-09T14:25:30.508Z,154641.53
2024-05-09T14:27:57.972Z,154507.53
2024-05-09T14:30:33.640Z,154282.88
2024-05-09T14:33:04.335Z,154043.06
2024-05-09T14:35:31.416Z,153958.94
2024-05-09T14:38:01.143Z,153873.50
2024-05-09T14:40:38.793Z,153766.47
2024-05-09T14:43:11.034Z,153758.84
2024-05-09T14:45:37.999Z,153738.47
2024-05-09T14:48:05.558Z,153628.88
2024-05-09T14:50:37.129Z,153584.28
2024-05-09T14:53:10.744Z,153509.19
2024-05-09T14:55:39.096Z,153481.13
2024-05-09T14:58:17.657Z,153507.91
2024-05-09T15:00:50.866Z,153496.44
2024-05-09T15:03:21.114Z,153483.72
2024-05-09T15:05:49.147Z,153474.78
2024-05-09T15:08:19.391Z,153432.75
2024-05-09T15:10:46.744Z,153390.72
2024-05-09T15:13:16.477Z,153426.34
2024-05-09T15:15:44.059Z,153492.63
2024-05-09T15:18:11.254Z,153462.06
2024-05-09T15:20:38.461Z,153473.53
2024-05-09T15:23:06.993Z,153450.56
2024-05-09T15:25:37.218Z,153469.72
2024-05-09T15:28:04.821Z,153437.84
2024-05-09T15:30:33.685Z,153468.44
2024-05-09T15:33:01.901Z,153434.03
2024-05-09T15:35:29.081Z,153449.31
2024-05-09T15:37:56.241Z,153454.38
2024-05-09T15:40:31.732Z,153439.09
2024-05-09T15:43:10.120Z,153468.44
2024-05-09T15:45:38.931Z,153493.88
2024-05-09T15:48:08.106Z,153501.56
2024-05-09T15:50:39.331Z,153465.91
2024-05-09T15:53:09.924Z,153486.28
2024-05-09T15:55:37.489Z,153516.78
2024-05-09T15:58:07.838Z,153474.78
2024-05-09T16:00:39.191Z,153441.63
2024-05-09T16:03:10.019Z,153483.72
2024-05-09T16:05:37.542Z,153556.31
2024-05-09T16:08:05.833Z,153604.66
2024-05-09T16:10:34.340Z,153599.56
2024-05-09T16:13:03.338Z,153602.13
2024-05-09T16:15:33.676Z,153581.75
2024-05-09T16:18:00.915Z,153603.38
2024-05-09T16:20:37.312Z,153636.50
2024-05-09T16:23:08.522Z,153649.25
2024-05-09T16:25:35.708Z,153709.16
2024-05-09T16:28:05.754Z,153729.53
2024-05-09T16:30:38.331Z,153613.59
2024-05-09T16:33:06.308Z,153619.94
2024-05-09T16:35:33.239Z,153558.84
2024-05-09T16:38:01.677Z,153528.28
2024-05-09T16:40:36.340Z,153512.97
2024-05-09T16:43:07.191Z,153467.19
2024-05-09T16:45:34.535Z,153372.91
2024-05-09T16:48:04.965Z,153403.47
2024-05-09T16:50:34.306Z,153411.13
2024-05-09T16:53:02.913Z,153357.66
2024-05-09T16:55:30.168Z,153341.13
2024-05-09T16:57:58.001Z,153323.31
2024-05-09T17:00:35.883Z,153330.91
2024-05-09T17:03:13.285Z,153324.56
2024-05-09T17:05:41.923Z,153348.75
2024-05-09T17:08:09.344Z,153361.47
2024-05-09T17:10:36.685Z,153356.41
2024-05-09T17:13:06.186Z,153352.53
2024-05-09T17:15:34.570Z,153356.41
2024-05-09T17:18:01.889Z,153376.75
2024-05-09T17:20:35.192Z,153357.66
2024-05-09T17:23:05.953Z,153347.47
2024-05-09T17:25:33.567Z,153319.50
2024-05-09T17:28:00.850Z,153295.28
2024-05-09T17:30:32.631Z,153280.00
2024-05-09T17:33:03.495Z,153244.38
2024-05-09T17:35:33.248Z,153204.91
2024-05-09T17:38:00.261Z,153227.84
2024-05-09T17:40:32.743Z,153216.38
2024-05-09T17:43:02.998Z,153157.88
2024-05-09T17:45:30.343Z,153131.13
2024-05-09T17:47:58.057Z,153127.31
2024-05-09T17:50:31.479Z,153112.06
2024-05-09T17:53:05.819Z,153137.47
2024-05-09T17:55:32.949Z,153103.19
2024-05-09T17:57:59.999Z,153118.41
2024-05-09T18:02:57.293Z,153109.53
2024-05-09T18:05:24.429Z,153089.19
2024-05-09T18:07:51.407Z,153086.63
2024-05-09T18:10:26.052Z,153098.06
2024-05-09T18:12:59.848Z,153076.44
2024-05-09T18:15:26.686Z,153051.03
2024-05-09T18:17:54.096Z,153030.69
2024-05-09T18:20:32.091Z,153081.53
2024-05-09T18:23:06.958Z,153081.53
2024-05-09T18:25:36.502Z,153071.38
2024-05-09T18:28:03.820Z,153068.84
2024-05-09T18:30:34.550Z,153085.38
2024-05-09T18:33:04.119Z,153016.69
2024-05-09T18:35:31.430Z,153047.19
2024-05-09T18:37:58.319Z,153035.75
2024-05-09T18:40:32.545Z,152991.25
2024-05-09T18:43:07.906Z,152986.16
2024-05-09T18:45:36.676Z,152979.81
2024-05-09T18:48:04.840Z,152960.72
2024-05-09T18:50:36.294Z,152951.78
2024-05-09T18:53:06.540Z,152945.44
2024-05-09T18:55:33.713Z,152922.56
2024-05-09T18:58:00.872Z,152930.19
2024-05-09T19:00:35.345Z,152911.13
2024-05-09T19:03:06.881Z,152881.88
2024-05-09T19:05:36.411Z,152873.00
2024-05-09T19:08:03.969Z,152857.72
2024-05-09T19:10:34.499Z,152861.53
2024-05-09T19:13:06.683Z,152836.13
2024-05-09T19:15:40.663Z,152828.47
2024-05-09T19:18:08.493Z,152809.44
2024-05-09T19:20:36.642Z,152775.09
2024-05-09T19:23:05.154Z,152776.41
2024-05-09T19:25:32.650Z,152728.13
2024-05-09T19:27:59.626Z,152734.47
2024-05-09T19:30:36.404Z,152731.94
2024-05-09T19:33:12.019Z,152719.22
2024-05-09T19:35:40.019Z,152704.00
2024-05-09T19:38:07.087Z,152692.50
2024-05-09T19:40:35.164Z,152675.97
2024-05-09T19:43:04.482Z,152664.53
2024-05-09T19:45:32.521Z,152673.44
2024-05-09T19:48:00.105Z,152663.25
2024-05-09T19:50:41.837Z,152650.59
2024-05-09T19:53:11.670Z,152611.19
2024-05-09T19:55:39.323Z,152613.75
2024-05-09T19:58:07.705Z,152626.44
2024-05-09T20:00:37.895Z,152621.34
2024-05-09T20:03:07.389Z,152615.03
2024-05-09T20:05:37.890Z,152602.31
2024-05-09T20:08:06.235Z,152590.88
2024-05-09T20:10:35.422Z,152585.78
2024-05-09T20:13:04.474Z,152583.25
2024-05-09T20:15:34.105Z,152578.19
2024-05-09T20:18:01.493Z,152583.25
2024-05-09T20:20:36.357Z,152560.41
2024-05-09T20:23:10.335Z,152559.09
2024-05-09T20:25:38.182Z,152559.09
2024-05-09T20:28:06.250Z,152535.00
2024-05-09T20:30:34.557Z,152555.31
2024-05-09T20:33:04.420Z,152550.25
2024-05-09T20:35:33.023Z,152533.72
2024-05-09T20:38:00.636Z,152564.22
2024-05-09T20:40:34.628Z,152538.78
2024-05-09T20:43:05.696Z,152519.75
2024-05-09T20:45:33.431Z,152523.59
2024-05-09T20:48:00.659Z,152513.41
2024-05-09T20:50:36.151Z,152496.91
2024-05-09T20:53:08.930Z,152482.94
2024-05-09T20:55:38.563Z,152472.78
2024-05-09T20:58:05.714Z,152476.59
2024-05-09T21:00:39.209Z,152476.59
2024-05-09T21:03:10.905Z,152476.59
2024-05-09T21:05:38.659Z,152491.84
2024-05-09T21:08:06.539Z,152476.59
2024-05-09T21:10:34.720Z,152427.06
2024-05-09T21:13:05.852Z,152359.72
2024-05-09T21:15:33.638Z,152350.88
2024-05-09T21:18:00.578Z,152321.66
2024-05-09T21:20:31.499Z,152325.50
2024-05-09T21:23:00.651Z,152345.81
2024-05-09T21:25:27.732Z,152329.31
2024-05-09T21:27:54.730Z,152305.16
2024-05-09T21:30:32.884Z,152243.00
2024-05-09T21:33:07.990Z,152253.16
2024-05-09T21:35:35.029Z,152291.22
2024-05-09T21:38:01.868Z,152302.63
2024-05-09T21:40:34.287Z,152305.16
2024-05-09T21:43:04.022Z,152311.53
2024-05-09T21:45:34.187Z,152321.66
2024-05-09T21:48:03.366Z,152325.50
2024-05-09T21:50:37.025Z,152319.13
2024-05-09T21:53:07.709Z,152307.75
2024-05-09T21:55:36.961Z,152303.88
2024-05-09T21:58:04.235Z,152320.38
2024-05-09T22:00:37.542Z,152338.16
2024-05-09T22:03:06.734Z,152340.69
2024-05-09T22:05:34.454Z,152331.84
2024-05-09T22:08:01.605Z,152325.50
2024-05-09T22:10:33.903Z,152338.16
2024-05-09T22:13:02.943Z,152335.63
2024-05-09T22:15:29.958Z,152325.50
2024-05-09T22:17:59.586Z,152319.13
2024-05-09T22:20:34.323Z,152321.66
2024-05-09T22:23:05.405Z,152326.78
2024-05-09T22:25:33.094Z,152317.84
2024-05-09T22:28:00.896Z,152300.09
2024-05-09T22:30:35.617Z,152287.38
2024-05-09T22:33:10.416Z,152315.31
2024-05-09T22:35:38.885Z,152320.38
2024-05-09T22:38:06.008Z,152317.84
2024-05-09T22:40:42.588Z,152282.31
2024-05-09T22:43:21.487Z,152269.63
2024-05-09T22:45:50.530Z,152245.53
2024-05-09T22:48:20.694Z,152250.59
2024-05-09T22:50:47.594Z,152262.03
2024-05-09T22:53:14.685Z,152256.97
2024-05-09T22:55:41.706Z,152241.72
2024-05-09T22:58:08.667Z,152251.84
2024-05-09T23:00:35.727Z,152255.69
2024-05-09T23:03:03.313Z,152241.72
2024-05-09T23:05:34.826Z,152241.72
2024-05-09T23:08:02.110Z,152236.66
2024-05-09T23:10:35.440Z,152236.66
2024-05-09T23:13:05.350Z,152206.22
2024-05-09T23:15:32.227Z,152202.41
2024-05-09T23:17:59.428Z,152218.91
2024-05-09T23:20:33.834Z,152223.97
2024-05-09T23:23:07.974Z,152232.81
2024-05-09T23:25:34.986Z,152225.22
2024-05-09T23:28:01.983Z,152226.50
2024-05-09T23:30:36.543Z,152221.44
2024-05-09T23:33:07.075Z,152201.16
2024-05-09T23:35:34.051Z,152183.38
2024-05-09T23:38:00.955Z,152194.78
2024-05-09T23:40:37.947Z,152157.97
2024-05-09T23:43:07.658Z,152151.66
2024-05-09T23:45:35.010Z,152125.00
2024-05-09T23:48:02.295Z,152140.22
2024-05-09T23:50:35.001Z,152142.75
2024-05-09T23:53:05.747Z,152142.75
2024-05-09T23:55:35.549Z,152119.94
2024-05-09T23:58:02.569Z,152092.00
